Holman Station, Alabama
Current Conditions -  °F | °C
As of 5:56 AM on Sunday 25 Jan 2015 (Local Time) from KNSE Reporting Station
Clear Clear  
Wind Chill: 37°   Ceiling: Unl
Heat Index: 37°   Visibility: 8mi
Dew Point: 35°   Wind: 3mph
Humidity: 93%   Direction: 220°SW
Pressure: 30.04"   Gusts: NA
Location:  31.0216°N, 87.4954°W
Report Text: KNSE 251156Z AUTO 22003KT 8SM CLR 03/02 A3004 RMK AO2 RAE01 SLP161 6//// 7//// T00280017 10044 20006 57007 PNO $
Loading
Personal Weather Stations






























Interactive Weather Map New forecast layout! Learn more

10-Day Weather Forecast

Advertisements
Track Severe Weather on mobile